Pagrindinis puslapis
METAR-TAF:

METAR-TAF

Oro uostai :

Oro pajėgų bazė

Chamis Mušaitas, Saudo Arabija

platuma: 18-18N, ilguma: 042-48E, Aukštis: 2066 m

Dabartinis oras

Ataskaita buvo paskelbta 41 minutes, ne 08:00 UTC
Vėjas 11 kt iš Pietų/Pietvakarių
Temperatūra 23°C
Drėgmė 44%
Slėgis 1025 hPa
Matomumas 10 km arba daugiau
nėra debesų žemiau 1500 m ir nėra kamuolinių lietaus debesų

METAR: OEKM 150800Z 21011KT CAVOK 23/10 Q1025 NOSIG

Laikas: 11:41 (08:41 UTC)

Prognozė

Ataskaita buvo paskelbta 3 valandos ir 41 minutes, ne 05:00 UTC
Prognozė galioja nuo 15 metu 06 UTC su 15 metu 15 UTC
Vėjas 15 kt iš Pietų/Pietvakarių
Matomumas 10 km arba daugiau
Mažai debesys ne aukštis 2000 ft
Laikinai
nuo 15 metu 10 UTC su 15 metu 15 UTC
Matomumas: 7000 m
Mažai debesys ne aukštis 2500 ft, Liūtiniai kamuoliniai debesys.
perkūnija

TAF: OEKM 150500Z 1506/1515 20015KT 9999 FEW020 TEMPO 1510/1515 7000 TS FEW025CB

Orai ataskaitas ir orų prognozės (METAR, TAF).

turimą stotys yra geltonos ir raudonos taškus žemėlapyje.

Perkelti pele per norėdami pamatyti stoties vardą.

Tada spustelėkite, norėdami matyti oro stebėjimo ir prognozės.

Norėdami pakeisti žemėlapį: spustelėkite ant žalios mygtukų su juodo kryžiaus žemyn,; žalią mygtuką su brūkšneliu, jei norite nutolinti; arba žalių rodyklių gretimoms žemėlapius.


METAR-TAF: